RJAZ(METAR)
12/16 16:00
RJAZ 160700Z 30018G28KT 9999 RA BKN024 OVC044 11/07 Q1012 RMK A2989=
戻る
トップページへ戻る
IMOC Co,.Ltd.